sensor_id;sensor_type;location;lat;lon;timestamp;pressure;altitude;pressure_sealevel;temperature;humidity
35694;BME280;21812;55.536;37.664;2022-09-09T00:00:13;100483.97;;;7.62;72.70
35694;BME280;21812;55.536;37.664;2022-09-09T00:02:43;100482.28;;;7.61;72.65
35694;BME280;21812;55.536;37.664;2022-09-09T00:07:53;100492.28;;;7.67;72.81
35694;BME280;21812;55.536;37.664;2022-09-09T00:13:03;100490.63;;;7.66;72.36
35694;BME280;21812;55.536;37.664;2022-09-09T00:15:38;100484.69;;;7.72;72.13
35694;BME280;21812;55.536;37.664;2022-09-09T00:18:25;100462.69;;;7.62;71.99
35694;BME280;21812;55.536;37.664;2022-09-09T00:20:58;100488.72;;;7.76;72.02
35694;BME280;21812;55.536;37.664;2022-09-09T00:23:31;100474.44;;;7.77;71.83
35694;BME280;21812;55.536;37.664;2022-09-09T00:26:21;100491.00;;;7.89;71.81
35694;BME280;21812;55.536;37.664;2022-09-09T00:28:57;100493.28;;;7.84;71.88
35694;BME280;21812;55.536;37.664;2022-09-09T00:31:30;100496.47;;;7.88;71.89
35694;BME280;21812;55.536;37.664;2022-09-09T00:34:23;100495.53;;;7.97;72.03
35694;BME280;21812;55.536;37.664;2022-09-09T00:36:52;100468.75;;;7.72;71.97
35694;BME280;21812;55.536;37.664;2022-09-09T00:39:25;100504.16;;;7.91;72.01
35694;BME280;21812;55.536;37.664;2022-09-09T00:42:15;100498.34;;;7.95;71.58
35694;BME280;21812;55.536;37.664;2022-09-09T00:45:09;100503.81;;;7.94;71.59
35694;BME280;21812;55.536;37.664;2022-09-09T00:47:51;100497.47;;;7.87;71.88
35694;BME280;21812;55.536;37.664;2022-09-09T00:50:34;100503.91;;;7.84;72.04
35694;BME280;21812;55.536;37.664;2022-09-09T00:56:14;100511.34;;;7.80;71.28
35694;BME280;21812;55.536;37.664;2022-09-09T00:59:43;100483.03;;;7.71;71.88
35694;BME280;21812;55.536;37.664;2022-09-09T01:01:40;100511.34;;;7.80;71.46
35694;BME280;21812;55.536;37.664;2022-09-09T01:04:16;100485.03;;;7.69;71.81
35694;BME280;21812;55.536;37.664;2022-09-09T01:06:52;100517.38;;;7.82;71.23
35694;BME280;21812;55.536;37.664;2022-09-09T01:09:38;100517.59;;;7.89;71.81
35694;BME280;21812;55.536;37.664;2022-09-09T01:12:40;100520.94;;;7.91;72.01
35694;BME280;21812;55.536;37.664;2022-09-09T01:15:13;100526.34;;;7.81;71.75
35694;BME280;21812;55.536;37.664;2022-09-09T01:18:02;100525.72;;;7.88;72.41
35694;BME280;21812;55.536;37.664;2022-09-09T01:28:49;100522.47;;;7.76;72.00
35694;BME280;21812;55.536;37.664;2022-09-09T01:31:21;100503.25;;;7.64;71.58
35694;BME280;21812;55.536;37.664;2022-09-09T01:33:49;100535.28;;;7.80;71.54
35694;BME280;21812;55.536;37.664;2022-09-09T01:39:06;100536.03;;;7.73;71.56
35694;BME280;21812;55.536;37.664;2022-09-09T01:41:32;100541.53;;;7.71;72.01
35694;BME280;21812;55.536;37.664;2022-09-09T01:44:05;100542.78;;;7.67;72.08
35694;BME280;21812;55.536;37.664;2022-09-09T01:46:34;100541.06;;;7.58;70.92
35694;BME280;21812;55.536;37.664;2022-09-09T01:49:03;100498.50;;;7.22;71.37
35694;BME280;21812;55.536;37.664;2022-09-09T01:51:31;100552.00;;;7.55;71.83
35694;BME280;21812;55.536;37.664;2022-09-09T01:54:02;100548.38;;;7.56;71.97
35694;BME280;21812;55.536;37.664;2022-09-09T01:56:43;100548.38;;;7.56;72.08
35694;BME280;21812;55.536;37.664;2022-09-09T02:02:02;100557.25;;;7.64;72.28
35694;BME280;21812;55.536;37.664;2022-09-09T02:07:42;100555.34;;;7.75;71.70
35694;BME280;21812;55.536;37.664;2022-09-09T02:10:30;100560.91;;;7.63;70.94
35694;BME280;21812;55.536;37.664;2022-09-09T02:13:14;100533.88;;;7.40;70.14
35694;BME280;21812;55.536;37.664;2022-09-09T02:16:05;100557.59;;;7.52;70.20
35694;BME280;21812;55.536;37.664;2022-09-09T02:18:36;100568.84;;;7.46;69.76
35694;BME280;21812;55.536;37.664;2022-09-09T02:21:07;100571.81;;;7.42;69.88
35694;BME280;21812;55.536;37.664;2022-09-09T02:23:36;100568.16;;;7.43;71.11
35694;BME280;21812;55.536;37.664;2022-09-09T02:26:08;100568.53;;;7.49;70.99
35694;BME280;21812;55.536;37.664;2022-09-09T02:28:36;100559.34;;;7.43;70.12
35694;BME280;21812;55.536;37.664;2022-09-09T02:31:04;100568.00;;;7.45;69.42
35694;BME280;21812;55.536;37.664;2022-09-09T02:33:40;100519.91;;;7.20;71.07
35694;BME280;21812;55.536;37.664;2022-09-09T02:36:09;100544.50;;;7.40;71.67
35694;BME280;21812;55.536;37.664;2022-09-09T02:38:40;100577.97;;;7.61;70.89
35694;BME280;21812;55.536;37.664;2022-09-09T02:41:12;100577.19;;;7.51;70.64
35694;BME280;21812;55.536;37.664;2022-09-09T02:43:38;100582.94;;;7.46;69.95
35694;BME280;21812;55.536;37.664;2022-09-09T02:48:57;100574.50;;;7.33;70.85
35694;BME280;21812;55.536;37.664;2022-09-09T02:51:48;100598.31;;;7.52;70.76
35694;BME280;21812;55.536;37.664;2022-09-09T02:54:28;100602.09;;;7.50;70.81
35694;BME280;21812;55.536;37.664;2022-09-09T02:57:21;100600.03;;;7.43;70.52
35694;BME280;21812;55.536;37.664;2022-09-09T02:59:49;100607.22;;;7.33;71.14
35694;BME280;21812;55.536;37.664;2022-09-09T03:02:15;100600.00;;;7.26;70.76
35694;BME280;21812;55.536;37.664;2022-09-09T03:04:44;100607.78;;;7.27;70.90
35694;BME280;21812;55.536;37.664;2022-09-09T03:07:19;100606.97;;;7.27;71.39
35694;BME280;21812;55.536;37.664;2022-09-09T03:09:49;100611.44;;;7.26;71.59
35694;BME280;21812;55.536;37.664;2022-09-09T03:12:17;100606.72;;;7.20;71.58
35694;BME280;21812;55.536;37.664;2022-09-09T03:14:43;100615.38;;;7.22;71.33
35694;BME280;21812;55.536;37.664;2022-09-09T03:17:11;100612.03;;;7.20;71.31
35694;BME280;21812;55.536;37.664;2022-09-09T03:19:44;100612.88;;;7.20;71.12
35694;BME280;21812;55.536;37.664;2022-09-09T03:22:10;100613.16;;;7.17;71.31
35694;BME280;21812;55.536;37.664;2022-09-09T03:24:39;100608.97;;;7.15;71.47
35694;BME280;21812;55.536;37.664;2022-09-09T03:27:04;100616.25;;;7.13;71.35
35694;BME280;21812;55.536;37.664;2022-09-09T03:29:30;100620.19;;;7.09;71.46
35694;BME280;21812;55.536;37.664;2022-09-09T03:31:59;100615.72;;;7.09;71.71
35694;BME280;21812;55.536;37.664;2022-09-09T03:34:25;100619.19;;;7.10;72.01
35694;BME280;21812;55.536;37.664;2022-09-09T03:36:50;100623.53;;;7.11;72.14
35694;BME280;21812;55.536;37.664;2022-09-09T03:39:21;100635.69;;;7.13;72.42
35694;BME280;21812;55.536;37.664;2022-09-09T03:41:47;100636.00;;;7.10;72.16
35694;BME280;21812;55.536;37.664;2022-09-09T03:44:14;100638.47;;;7.12;72.12
35694;BME280;21812;55.536;37.664;2022-09-09T03:46:41;100631.06;;;7.15;71.94
35694;BME280;21812;55.536;37.664;2022-09-09T03:49:07;100636.91;;;7.19;72.15
35694;BME280;21812;55.536;37.664;2022-09-09T03:51:33;100633.28;;;7.20;72.26
35694;BME280;21812;55.536;37.664;2022-09-09T03:54:02;100637.31;;;7.24;72.35
35694;BME280;21812;55.536;37.664;2022-09-09T03:56:31;100637.31;;;7.24;72.23
35694;BME280;21812;55.536;37.664;2022-09-09T03:58:57;100640.25;;;7.21;72.18
35694;BME280;21812;55.536;37.664;2022-09-09T04:01:24;100639.16;;;7.14;71.59
35694;BME280;21812;55.536;37.664;2022-09-09T04:03:50;100650.94;;;7.11;71.36
35694;BME280;21812;55.536;37.664;2022-09-09T04:06:16;100653.44;;;7.13;71.15
35694;BME280;21812;55.536;37.664;2022-09-09T04:08:45;100651.94;;;7.10;70.95
35694;BME280;21812;55.536;37.664;2022-09-09T04:11:14;100659.16;;;7.18;70.57
35694;BME280;21812;55.536;37.664;2022-09-09T04:13:41;100656.63;;;7.26;70.40
35694;BME280;21812;55.536;37.664;2022-09-09T04:16:11;100660.66;;;7.30;70.26
35694;BME280;21812;55.536;37.664;2022-09-09T04:18:41;100662.16;;;7.33;70.10
35694;BME280;21812;55.536;37.664;2022-09-09T04:21:09;100638.59;;;7.20;70.31
35694;BME280;21812;55.536;37.664;2022-09-09T04:23:35;100663.56;;;7.37;70.06
35694;BME280;21812;55.536;37.664;2022-09-09T04:26:02;100648.47;;;7.37;70.21
35694;BME280;21812;55.536;37.664;2022-09-09T04:28:33;100628.06;;;7.28;69.56
35694;BME280;21812;55.536;37.664;2022-09-09T04:31:12;100666.38;;;7.63;69.59
35694;BME280;21812;55.536;37.664;2022-09-09T04:33:40;100654.63;;;7.66;69.61
35694;BME280;21812;55.536;37.664;2022-09-09T04:36:07;100663.81;;;7.71;70.16
35694;BME280;21812;55.536;37.664;2022-09-09T04:38:33;100669.53;;;7.76;69.12
35694;BME280;21812;55.536;37.664;2022-09-09T04:41:00;100668.22;;;7.80;68.94
35694;BME280;21812;55.536;37.664;2022-09-09T04:43:26;100666.72;;;7.78;68.74
35694;BME280;21812;55.536;37.664;2022-09-09T04:45:53;100653.72;;;7.75;69.53
35694;BME280;21812;55.536;37.664;2022-09-09T04:48:21;100678.59;;;7.83;69.17
35694;BME280;21812;55.536;37.664;2022-09-09T04:51:03;100673.13;;;7.85;68.26
35694;BME280;21812;55.536;37.664;2022-09-09T04:53:31;100668.84;;;7.74;67.90
35694;BME280;21812;55.536;37.664;2022-09-09T04:56:04;100673.25;;;7.83;68.11
35694;BME280;21812;55.536;37.664;2022-09-09T04:58:34;100681.69;;;7.79;67.29
35694;BME280;21812;55.536;37.664;2022-09-09T05:03:29;100683.06;;;7.83;67.64
35694;BME280;21812;55.536;37.664;2022-09-09T05:06:05;100667.41;;;7.80;67.57
35694;BME280;21812;55.536;37.664;2022-09-09T05:08:32;100688.47;;;7.91;67.36
35694;BME280;21812;55.536;37.664;2022-09-09T05:10:58;100688.88;;;7.96;67.65
35694;BME280;21812;55.536;37.664;2022-09-09T05:13:28;100671.09;;;7.97;67.78
35694;BME280;21812;55.536;37.664;2022-09-09T05:15:54;100686.53;;;8.11;67.28
35694;BME280;21812;55.536;37.664;2022-09-09T05:18:21;100693.91;;;8.17;67.33
35694;BME280;21812;55.536;37.664;2022-09-09T05:20:49;100694.06;;;8.16;66.30
35694;BME280;21812;55.536;37.664;2022-09-09T05:23:14;100693.38;;;8.14;66.30
35694;BME280;21812;55.536;37.664;2022-09-09T05:25:40;100693.78;;;8.19;66.39
35694;BME280;21812;55.536;37.664;2022-09-09T05:28:07;100702.66;;;8.28;66.08
35694;BME280;21812;55.536;37.664;2022-09-09T05:30:33;100695.75;;;8.35;65.71
35694;BME280;21812;55.536;37.664;2022-09-09T05:33:01;100702.03;;;8.34;65.49
35694;BME280;21812;55.536;37.664;2022-09-09T05:35:27;100700.38;;;8.33;65.18
35694;BME280;21812;55.536;37.664;2022-09-09T05:37:52;100688.91;;;8.32;65.53
35694;BME280;21812;55.536;37.664;2022-09-09T05:40:18;100693.09;;;8.35;65.63
35694;BME280;21812;55.536;37.664;2022-09-09T05:42:44;100691.09;;;8.37;64.66
35694;BME280;21812;55.536;37.664;2022-09-09T05:45:10;100698.25;;;8.36;64.08
35694;BME280;21812;55.536;37.664;2022-09-09T05:47:38;100697.44;;;8.36;63.77
35694;BME280;21812;55.536;37.664;2022-09-09T05:50:13;100707.38;;;8.34;64.10
35694;BME280;21812;55.536;37.664;2022-09-09T05:52:40;100698.41;;;8.35;64.17
35694;BME280;21812;55.536;37.664;2022-09-09T05:55:07;100697.25;;;8.37;64.39
35694;BME280;21812;55.536;37.664;2022-09-09T05:57:33;100700.44;;;8.41;64.31
35694;BME280;21812;55.536;37.664;2022-09-09T06:00:02;100699.19;;;8.45;63.95
35694;BME280;21812;55.536;37.664;2022-09-09T06:02:39;100701.41;;;8.50;63.66
35694;BME280;21812;55.536;37.664;2022-09-09T06:05:07;100707.28;;;8.53;63.14
35694;BME280;21812;55.536;37.664;2022-09-09T06:07:36;100703.31;;;8.57;63.36
35694;BME280;21812;55.536;37.664;2022-09-09T06:10:03;100707.47;;;8.60;63.24
35694;BME280;21812;55.536;37.664;2022-09-09T06:12:29;100710.00;;;8.61;62.48
35694;BME280;21812;55.536;37.664;2022-09-09T06:14:55;100711.50;;;8.64;61.90
35694;BME280;21812;55.536;37.664;2022-09-09T06:17:20;100714.41;;;8.71;62.33
35694;BME280;21812;55.536;37.664;2022-09-09T06:19:47;100713.47;;;8.80;62.78
35694;BME280;21812;55.536;37.664;2022-09-09T06:22:12;100714.56;;;8.87;62.74
35694;BME280;21812;55.536;37.664;2022-09-09T06:24:38;100726.72;;;8.90;62.05
35694;BME280;21812;55.536;37.664;2022-09-09T06:27:05;100709.56;;;8.92;61.32
35694;BME280;21812;55.536;37.664;2022-09-09T06:29:33;100719.53;;;8.90;60.28
35694;BME280;21812;55.536;37.664;2022-09-09T06:32:00;100723.72;;;8.93;60.88
35694;BME280;21812;55.536;37.664;2022-09-09T06:34:26;100726.75;;;8.98;60.20
35694;BME280;21812;55.536;37.664;2022-09-09T06:36:54;100719.31;;;9.02;60.79
35694;BME280;21812;55.536;37.664;2022-09-09T06:39:23;100724.47;;;9.03;59.60
35694;BME280;21812;55.536;37.664;2022-09-09T06:41:49;100727.00;;;9.05;59.38
35694;BME280;21812;55.536;37.664;2022-09-09T06:44:38;100724.91;;;9.16;59.94
35694;BME280;21812;55.536;37.664;2022-09-09T06:47:07;100732.78;;;9.26;59.29
35694;BME280;21812;55.536;37.664;2022-09-09T06:49:33;100733.16;;;9.31;59.19
35694;BME280;21812;55.536;37.664;2022-09-09T06:52:02;100741.31;;;9.30;56.96
35694;BME280;21812;55.536;37.664;2022-09-09T06:54:28;100735.97;;;9.30;57.27
35694;BME280;21812;55.536;37.664;2022-09-09T06:56:54;100745.34;;;9.34;56.37
35694;BME280;21812;55.536;37.664;2022-09-09T06:59:22;100753.84;;;9.37;55.94
35694;BME280;21812;55.536;37.664;2022-09-09T07:01:49;100750.72;;;9.42;56.27
35694;BME280;21812;55.536;37.664;2022-09-09T07:04:18;100748.72;;;9.44;57.33
35694;BME280;21812;55.536;37.664;2022-09-09T07:06:45;100739.44;;;9.48;57.48
35694;BME280;21812;55.536;37.664;2022-09-09T07:09:16;100745.00;;;9.63;57.42
35694;BME280;21812;55.536;37.664;2022-09-09T07:11:49;100742.53;;;9.70;57.48
35694;BME280;21812;55.536;37.664;2022-09-09T07:14:18;100744.56;;;9.76;57.18
35694;BME280;21812;55.536;37.664;2022-09-09T07:16:48;100739.44;;;9.83;56.58
35694;BME280;21812;55.536;37.664;2022-09-09T07:19:15;100752.50;;;9.94;56.19
35694;BME280;21812;55.536;37.664;2022-09-09T07:21:43;100754.50;;;9.92;54.75
35694;BME280;21812;55.536;37.664;2022-09-09T07:24:11;100758.28;;;9.89;55.05
35694;BME280;21812;55.536;37.664;2022-09-09T07:26:39;100756.63;;;9.88;56.19
35694;BME280;21812;55.536;37.664;2022-09-09T07:29:07;100767.31;;;9.88;54.59
35694;BME280;21812;55.536;37.664;2022-09-09T07:31:35;100755.59;;;9.81;52.67
35694;BME280;21812;55.536;37.664;2022-09-09T07:34:03;100765.09;;;9.84;51.68
35694;BME280;21812;55.536;37.664;2022-09-09T07:36:31;100740.53;;;9.72;52.54
35694;BME280;21812;55.536;37.664;2022-09-09T07:39:05;100748.56;;;9.80;52.04
35694;BME280;21812;55.536;37.664;2022-09-09T07:44:05;100751.09;;;9.82;52.50
35694;BME280;21812;55.536;37.664;2022-09-09T07:46:32;100777.16;;;10.30;66.88
35694;BME280;21812;55.536;37.664;2022-09-09T07:49:00;100777.44;;;11.11;76.83
35694;BME280;21812;55.536;37.664;2022-09-09T07:51:35;100757.28;;;11.64;76.14
35694;BME280;21812;55.536;37.664;2022-09-09T07:54:04;100779.41;;;12.45;71.02
35694;BME280;21812;55.536;37.664;2022-09-09T07:56:32;100776.16;;;12.96;63.06
35694;BME280;21812;55.536;37.664;2022-09-09T07:58:59;100767.63;;;12.78;51.01
35694;BME280;21812;55.536;37.664;2022-09-09T08:06:20;100779.72;;;11.63;51.19
35694;BME280;21812;55.536;37.664;2022-09-09T08:08:51;100770.69;;;11.48;50.59
35694;BME280;21812;55.536;37.664;2022-09-09T08:11:17;100785.56;;;11.42;50.35
35694;BME280;21812;55.536;37.664;2022-09-09T08:13:49;100780.75;;;11.38;49.99
35694;BME280;21812;55.536;37.664;2022-09-09T08:16:18;100778.41;;;11.26;49.63
35694;BME280;21812;55.536;37.664;2022-09-09T08:18:48;100787.78;;;11.14;49.75
35694;BME280;21812;55.536;37.664;2022-09-09T08:21:18;100779.09;;;11.12;49.03
35694;BME280;21812;55.536;37.664;2022-09-09T08:23:45;100784.44;;;11.04;49.94
35694;BME280;21812;55.536;37.664;2022-09-09T08:26:18;100790.47;;;10.98;51.35
35694;BME280;21812;55.536;37.664;2022-09-09T08:28:49;100790.13;;;11.01;49.99
35694;BME280;21812;55.536;37.664;2022-09-09T08:31:29;100791.28;;;10.98;50.24
35694;BME280;21812;55.536;37.664;2022-09-09T08:33:57;100799.66;;;10.95;49.61
35694;BME280;21812;55.536;37.664;2022-09-09T08:36:28;100768.38;;;10.79;49.14
35694;BME280;21812;55.536;37.664;2022-09-09T08:38:56;100786.63;;;11.08;48.69
35694;BME280;21812;55.536;37.664;2022-09-09T08:44:23;100792.75;;;11.42;48.59
35694;BME280;21812;55.536;37.664;2022-09-09T08:52:03;100762.56;;;10.84;50.36
35694;BME280;21812;55.536;37.664;2022-09-09T08:54:33;100768.59;;;10.78;49.20
35694;BME280;21812;55.536;37.664;2022-09-09T08:57:03;100775.56;;;10.79;49.65
35694;BME280;21812;55.536;37.664;2022-09-09T08:59:35;100796.00;;;11.04;49.31
35694;BME280;21812;55.536;37.664;2022-09-09T09:02:21;100769.91;;;11.06;49.82
35694;BME280;21812;55.536;37.664;2022-09-09T09:07:23;100795.28;;;11.43;48.03
35694;BME280;21812;55.536;37.664;2022-09-09T09:12:45;100799.09;;;11.57;49.01
35694;BME280;21812;55.536;37.664;2022-09-09T09:15:22;100781.06;;;11.43;48.91
35694;BME280;21812;55.536;37.664;2022-09-09T09:17:50;100802.78;;;11.48;48.95
35694;BME280;21812;55.536;37.664;2022-09-09T09:20:23;100796.06;;;11.68;48.96
35694;BME280;21812;55.536;37.664;2022-09-09T09:22:54;100763.59;;;11.80;49.13
35694;BME280;21812;55.536;37.664;2022-09-09T09:25:34;100789.59;;;12.10;48.42
35694;BME280;21812;55.536;37.664;2022-09-09T09:30:41;100800.84;;;12.06;45.88
35694;BME280;21812;55.536;37.664;2022-09-09T09:33:20;100772.63;;;11.79;45.72
35694;BME280;21812;55.536;37.664;2022-09-09T09:35:49;100807.38;;;11.87;46.91
35694;BME280;21812;55.536;37.664;2022-09-09T09:38:20;100796.22;;;11.75;46.70
35694;BME280;21812;55.536;37.664;2022-09-09T09:40:54;100783.34;;;11.79;46.05
35694;BME280;21812;55.536;37.664;2022-09-09T09:43:34;100786.56;;;12.13;45.33
35694;BME280;21812;55.536;37.664;2022-09-09T09:46:04;100789.09;;;12.15;45.56
35694;BME280;21812;55.536;37.664;2022-09-09T09:48:31;100788.59;;;12.11;45.25
35694;BME280;21812;55.536;37.664;2022-09-09T09:51:09;100771.75;;;11.95;46.59
35694;BME280;21812;55.536;37.664;2022-09-09T09:53:38;100797.03;;;11.84;47.03
35694;BME280;21812;55.536;37.664;2022-09-09T09:56:08;100802.72;;;11.72;47.69
35694;BME280;21812;55.536;37.664;2022-09-09T09:58:55;100806.75;;;11.77;47.40
35694;BME280;21812;55.536;37.664;2022-09-09T10:01:31;100796.41;;;11.57;47.57
35694;BME280;21812;55.536;37.664;2022-09-09T10:06:39;100800.09;;;11.48;47.55
35694;BME280;21812;55.536;37.664;2022-09-09T10:09:37;100801.09;;;12.19;47.99
35694;BME280;21812;55.536;37.664;2022-09-09T10:14:42;100793.13;;;12.97;44.39
35694;BME280;21812;55.536;37.664;2022-09-09T10:17:22;100802.06;;;12.89;46.15
35694;BME280;21812;55.536;37.664;2022-09-09T10:22:52;100805.53;;;12.35;45.22
35694;BME280;21812;55.536;37.664;2022-09-09T10:25:32;100811.00;;;12.19;46.05
35694;BME280;21812;55.536;37.664;2022-09-09T10:28:23;100779.97;;;11.93;45.34
35694;BME280;21812;55.536;37.664;2022-09-09T10:34:00;100815.00;;;12.15;47.22
35694;BME280;21812;55.536;37.664;2022-09-09T10:36:31;100813.34;;;12.76;45.61
35694;BME280;21812;55.536;37.664;2022-09-09T10:39:34;100809.00;;;13.59;45.16
35694;BME280;21812;55.536;37.664;2022-09-09T10:42:08;100793.16;;;14.24;42.59
35694;BME280;21812;55.536;37.664;2022-09-09T10:47:54;100766.97;;;15.34;39.11
35694;BME280;21812;55.536;37.664;2022-09-09T10:50:53;100784.16;;;15.96;38.54
35694;BME280;21812;55.536;37.664;2022-09-09T10:56:13;100772.44;;;17.18;35.09
35694;BME280;21812;55.536;37.664;2022-09-09T11:02:00;100770.28;;;17.87;34.38
35694;BME280;21812;55.536;37.664;2022-09-09T11:04:42;100767.19;;;17.70;34.04
35694;BME280;21812;55.536;37.664;2022-09-09T11:07:13;100752.00;;;17.76;34.88
35694;BME280;21812;55.536;37.664;2022-09-09T11:09:49;100760.00;;;17.04;36.49
35694;BME280;21812;55.536;37.664;2022-09-09T11:12:19;100782.38;;;16.85;38.93
35694;BME280;21812;55.536;37.664;2022-09-09T11:14:49;100761.50;;;16.32;38.63
35694;BME280;21812;55.536;37.664;2022-09-09T11:20:01;100776.66;;;15.91;38.59
35694;BME280;21812;55.536;37.664;2022-09-09T11:25:03;100790.63;;;15.17;39.44
35694;BME280;21812;55.536;37.664;2022-09-09T11:34:40;100764.94;;;18.64;34.52
35694;BME280;21812;55.536;37.664;2022-09-09T11:41:50;100780.19;;;18.52;33.34
35694;BME280;21812;55.536;37.664;2022-09-09T11:44:29;100773.00;;;18.39;33.03
35694;BME280;21812;55.536;37.664;2022-09-09T11:46:56;100772.72;;;18.09;33.11
35694;BME280;21812;55.536;37.664;2022-09-09T11:49:29;100786.31;;;17.69;33.99
35694;BME280;21812;55.536;37.664;2022-09-09T11:52:38;100776.19;;;17.31;34.61
35694;BME280;21812;55.536;37.664;2022-09-09T11:55:31;100779.09;;;16.89;36.50
35694;BME280;21812;55.536;37.664;2022-09-09T11:58:05;100786.59;;;16.32;37.13
35694;BME280;21812;55.536;37.664;2022-09-09T12:00:42;100765.16;;;16.11;37.09
35694;BME280;21812;55.536;37.664;2022-09-09T12:06:13;100764.09;;;15.70;37.86
35694;BME280;21812;55.536;37.664;2022-09-09T12:08:43;100765.47;;;15.03;38.90
35694;BME280;21812;55.536;37.664;2022-09-09T12:11:10;100791.22;;;14.91;39.71
35694;BME280;21812;55.536;37.664;2022-09-09T12:13:37;100785.91;;;14.76;39.58
35694;BME280;21812;55.536;37.664;2022-09-09T12:16:03;100779.94;;;15.02;39.82
35694;BME280;21812;55.536;37.664;2022-09-09T12:18:40;100780.72;;;15.17;38.01
35694;BME280;21812;55.536;37.664;2022-09-09T12:21:26;100780.28;;;15.14;38.58
35694;BME280;21812;55.536;37.664;2022-09-09T12:23:59;100773.41;;;15.11;38.36
35694;BME280;21812;55.536;37.664;2022-09-09T12:29:26;100761.13;;;14.80;39.58
35694;BME280;21812;55.536;37.664;2022-09-09T12:32:10;100779.81;;;14.67;39.45
35694;BME280;21812;55.536;37.664;2022-09-09T12:35:12;100785.50;;;14.57;40.74
35694;BME280;21812;55.536;37.664;2022-09-09T12:37:50;100784.00;;;14.55;40.47
35694;BME280;21812;55.536;37.664;2022-09-09T12:40:23;100785.16;;;14.60;40.25
35694;BME280;21812;55.536;37.664;2022-09-09T12:42:49;100778.81;;;14.68;40.51
35694;BME280;21812;55.536;37.664;2022-09-09T12:45:20;100765.50;;;14.81;39.31
35694;BME280;21812;55.536;37.664;2022-09-09T12:50:23;100758.31;;;14.89;39.68
35694;BME280;21812;55.536;37.664;2022-09-09T12:52:56;100775.75;;;15.49;40.15
35694;BME280;21812;55.536;37.664;2022-09-09T12:55:32;100764.63;;;16.42;37.81
35694;BME280;21812;55.536;37.664;2022-09-09T12:57:59;100768.19;;;16.56;35.64
35694;BME280;21812;55.536;37.664;2022-09-09T13:00:26;100769.47;;;16.73;35.77
35694;BME280;21812;55.536;37.664;2022-09-09T13:02:58;100748.38;;;16.84;35.06
35694;BME280;21812;55.536;37.664;2022-09-09T13:05:38;100766.44;;;17.36;33.67
35694;BME280;21812;55.536;37.664;2022-09-09T13:08:11;100777.78;;;16.78;34.67
35694;BME280;21812;55.536;37.664;2022-09-09T13:10:42;100779.41;;;16.05;36.42
35694;BME280;21812;55.536;37.664;2022-09-09T13:13:22;100785.97;;;16.37;38.20
35694;BME280;21812;55.536;37.664;2022-09-09T13:15:54;100783.66;;;16.27;37.68
35694;BME280;21812;55.536;37.664;2022-09-09T13:18:23;100754.78;;;15.38;38.55
35694;BME280;21812;55.536;37.664;2022-09-09T13:20:50;100789.19;;;14.93;39.59
35694;BME280;21812;55.536;37.664;2022-09-09T13:23:20;100778.44;;;14.56;40.87
35694;BME280;21812;55.536;37.664;2022-09-09T13:26:00;100763.47;;;14.47;41.15
35694;BME280;21812;55.536;37.664;2022-09-09T13:28:28;100762.56;;;14.40;41.15
35694;BME280;21812;55.536;37.664;2022-09-09T13:31:05;100764.06;;;14.27;40.69
35694;BME280;21812;55.536;37.664;2022-09-09T13:33:44;100780.78;;;14.44;41.14
35694;BME280;21812;55.536;37.664;2022-09-09T13:36:11;100776.94;;;14.69;41.75
35694;BME280;21812;55.536;37.664;2022-09-09T13:41:21;100746.69;;;14.81;39.38
35694;BME280;21812;55.536;37.664;2022-09-09T13:43:50;100783.53;;;14.88;39.56
35694;BME280;21812;55.536;37.664;2022-09-09T13:46:37;100759.38;;;14.94;39.77
35694;BME280;21812;55.536;37.664;2022-09-09T13:49:21;100734.97;;;15.17;51.46
35694;BME280;21812;55.536;37.664;2022-09-09T13:51:48;100778.78;;;16.02;54.88
35694;BME280;21812;55.536;37.664;2022-09-09T13:54:15;100728.94;;;16.33;52.43
35694;BME280;21812;55.536;37.664;2022-09-09T13:56:42;100769.94;;;17.04;50.61
35694;BME280;21812;55.536;37.664;2022-09-09T13:59:13;100765.41;;;17.17;48.55
35694;BME280;21812;55.536;37.664;2022-09-09T14:01:39;100765.56;;;17.56;48.05
35694;BME280;21812;55.536;37.664;2022-09-09T14:04:05;100762.38;;;17.92;45.37
35694;BME280;21812;55.536;37.664;2022-09-09T14:06:32;100771.41;;;18.25;43.37
35694;BME280;21812;55.536;37.664;2022-09-09T14:09:00;100761.78;;;18.35;43.04
35694;BME280;21812;55.536;37.664;2022-09-09T14:11:26;100763.47;;;18.30;42.36
35694;BME280;21812;55.536;37.664;2022-09-09T14:13:51;100760.38;;;18.20;38.42
35694;BME280;21812;55.536;37.664;2022-09-09T14:16:17;100767.38;;;17.95;40.01
35694;BME280;21812;55.536;37.664;2022-09-09T14:18:44;100763.19;;;18.00;41.59
35694;BME280;21812;55.536;37.664;2022-09-09T14:21:11;100764.56;;;18.22;44.65
35694;BME280;21812;55.536;37.664;2022-09-09T14:23:37;100762.28;;;18.19;41.41
35694;BME280;21812;55.536;37.664;2022-09-09T14:26:04;100758.69;;;18.25;41.15
35694;BME280;21812;55.536;37.664;2022-09-09T14:28:31;100765.72;;;18.33;39.65
35694;BME280;21812;55.536;37.664;2022-09-09T14:31:03;100770.44;;;18.06;39.89
35694;BME280;21812;55.536;37.664;2022-09-09T14:33:29;100775.69;;;17.81;41.94
35694;BME280;21812;55.536;37.664;2022-09-09T14:35:57;100745.19;;;17.53;43.91
35694;BME280;21812;55.536;37.664;2022-09-09T14:38:23;100773.25;;;17.32;39.64
35694;BME280;21812;55.536;37.664;2022-09-09T14:40:48;100774.13;;;17.06;38.01
35694;BME280;21812;55.536;37.664;2022-09-09T14:43:14;100766.22;;;16.98;42.06
35694;BME280;21812;55.536;37.664;2022-09-09T14:45:40;100770.38;;;17.07;44.36
35694;BME280;21812;55.536;37.664;2022-09-09T14:48:05;100764.97;;;17.00;41.57
35694;BME280;21812;55.536;37.664;2022-09-09T14:50:31;100768.28;;;16.96;43.86